sensor_id;sensor_type;location;lat;lon;timestamp;temperature;humidity
47857;DHT22;33618;49.972;8.242;2022-07-29T00:01:40;21.10;75.80
47857;DHT22;33618;49.972;8.242;2022-07-29T00:04:07;20.90;76.80
47857;DHT22;33618;49.972;8.242;2022-07-29T00:06:34;20.90;77.50
47857;DHT22;33618;49.972;8.242;2022-07-29T00:09:01;20.90;80.40
47857;DHT22;33618;49.972;8.242;2022-07-29T00:11:34;20.70;85.60
47857;DHT22;33618;49.972;8.242;2022-07-29T00:14:03;20.60;90.50
47857;DHT22;33618;49.972;8.242;2022-07-29T00:16:31;20.30;90.00
47857;DHT22;33618;49.972;8.242;2022-07-29T00:18:57;20.30;90.00
47857;DHT22;33618;49.972;8.242;2022-07-29T00:21:28;20.30;92.10
47857;DHT22;33618;49.972;8.242;2022-07-29T00:37:42;20.30;93.20
47857;DHT22;33618;49.972;8.242;2022-07-29T00:40:26;20.30;90.90
47857;DHT22;33618;49.972;8.242;2022-07-29T00:42:53;20.30;91.30
47857;DHT22;33618;49.972;8.242;2022-07-29T00:48:24;20.40;91.40
47857;DHT22;33618;49.972;8.242;2022-07-29T00:50:51;20.30;91.90
47857;DHT22;33618;49.972;8.242;2022-07-29T00:53:19;20.20;91.40
47857;DHT22;33618;49.972;8.242;2022-07-29T00:59:41;20.30;87.60
47857;DHT22;33618;49.972;8.242;2022-07-29T01:02:08;20.40;92.20
47857;DHT22;33618;49.972;8.242;2022-07-29T01:07:39;20.20;95.70
47857;DHT22;33618;49.972;8.242;2022-07-29T01:10:06;20.10;97.50
47857;DHT22;33618;49.972;8.242;2022-07-29T01:15:41;19.80;99.90
47857;DHT22;33618;49.972;8.242;2022-07-29T01:29:00;19.00;99.90
47857;DHT22;33618;49.972;8.242;2022-07-29T01:34:08;19.00;99.90
47857;DHT22;33618;49.972;8.242;2022-07-29T01:36:39;19.00;99.90
47857;DHT22;33618;49.972;8.242;2022-07-29T01:39:19;19.00;99.90
47857;DHT22;33618;49.972;8.242;2022-07-29T01:41:49;19.00;99.90
47857;DHT22;33618;49.972;8.242;2022-07-29T01:44:19;19.00;99.90
47857;DHT22;33618;49.972;8.242;2022-07-29T01:46:49;19.00;99.90
47857;DHT22;33618;49.972;8.242;2022-07-29T01:49:24;19.00;99.90
47857;DHT22;33618;49.972;8.242;2022-07-29T01:51:59;19.10;99.90
47857;DHT22;33618;49.972;8.242;2022-07-29T01:54:43;19.10;99.90
47857;DHT22;33618;49.972;8.242;2022-07-29T01:57:13;19.10;99.90
47857;DHT22;33618;49.972;8.242;2022-07-29T01:59:40;18.80;99.90
47857;DHT22;33618;49.972;8.242;2022-07-29T02:02:08;18.60;99.90
47857;DHT22;33618;49.972;8.242;2022-07-29T02:04:36;18.70;99.90
47857;DHT22;33618;49.972;8.242;2022-07-29T02:07:05;18.60;99.90
47857;DHT22;33618;49.972;8.242;2022-07-29T02:09:33;18.60;99.90
47857;DHT22;33618;49.972;8.242;2022-07-29T02:12:02;18.60;99.90
47857;DHT22;33618;49.972;8.242;2022-07-29T02:21:16;18.60;99.90
47857;DHT22;33618;49.972;8.242;2022-07-29T02:23:45;18.60;99.90
47857;DHT22;33618;49.972;8.242;2022-07-29T02:26:18;18.60;99.90
47857;DHT22;33618;49.972;8.242;2022-07-29T02:28:45;18.50;99.90
47857;DHT22;33618;49.972;8.242;2022-07-29T02:31:12;18.50;99.90
47857;DHT22;33618;49.972;8.242;2022-07-29T02:33:40;18.50;99.90
47857;DHT22;33618;49.972;8.242;2022-07-29T02:36:07;18.40;99.90
47857;DHT22;33618;49.972;8.242;2022-07-29T02:38:34;18.40;99.90
47857;DHT22;33618;49.972;8.242;2022-07-29T02:41:19;18.40;99.90
47857;DHT22;33618;49.972;8.242;2022-07-29T02:43:50;18.30;99.90
47857;DHT22;33618;49.972;8.242;2022-07-29T02:46:21;18.30;99.90
47857;DHT22;33618;49.972;8.242;2022-07-29T02:48:56;18.20;99.90
47857;DHT22;33618;49.972;8.242;2022-07-29T02:51:37;18.20;99.90
47857;DHT22;33618;49.972;8.242;2022-07-29T02:54:10;18.20;99.90
47857;DHT22;33618;49.972;8.242;2022-07-29T02:56:37;18.20;99.90
47857;DHT22;33618;49.972;8.242;2022-07-29T02:59:07;18.20;99.90
47857;DHT22;33618;49.972;8.242;2022-07-29T03:01:36;18.10;99.90
47857;DHT22;33618;49.972;8.242;2022-07-29T03:04:05;18.10;99.90
47857;DHT22;33618;49.972;8.242;2022-07-29T03:06:34;18.10;99.90
47857;DHT22;33618;49.972;8.242;2022-07-29T03:09:04;18.00;99.90
47857;DHT22;33618;49.972;8.242;2022-07-29T03:11:38;18.00;99.90
47857;DHT22;33618;49.972;8.242;2022-07-29T03:17:20;17.90;99.90
47857;DHT22;33618;49.972;8.242;2022-07-29T03:19:48;17.80;99.90
47857;DHT22;33618;49.972;8.242;2022-07-29T03:22:14;17.90;99.90
47857;DHT22;33618;49.972;8.242;2022-07-29T03:24:44;17.80;99.90
47857;DHT22;33618;49.972;8.242;2022-07-29T03:27:12;17.80;99.90
47857;DHT22;33618;49.972;8.242;2022-07-29T03:29:39;17.80;99.90
47857;DHT22;33618;49.972;8.242;2022-07-29T03:32:11;17.80;99.90
47857;DHT22;33618;49.972;8.242;2022-07-29T03:34:39;17.70;99.90
47857;DHT22;33618;49.972;8.242;2022-07-29T03:37:06;17.70;99.90
47857;DHT22;33618;49.972;8.242;2022-07-29T03:39:36;17.60;99.90
47857;DHT22;33618;49.972;8.242;2022-07-29T03:42:05;17.60;99.90
47857;DHT22;33618;49.972;8.242;2022-07-29T03:44:33;17.60;99.90
47857;DHT22;33618;49.972;8.242;2022-07-29T03:47:01;17.40;99.90
47857;DHT22;33618;49.972;8.242;2022-07-29T03:49:30;17.40;99.90
47857;DHT22;33618;49.972;8.242;2022-07-29T03:52:02;17.40;99.90
47857;DHT22;33618;49.972;8.242;2022-07-29T03:54:32;17.30;99.90
47857;DHT22;33618;49.972;8.242;2022-07-29T03:57:02;17.30;99.90
47857;DHT22;33618;49.972;8.242;2022-07-29T03:59:30;17.40;99.90
47857;DHT22;33618;49.972;8.242;2022-07-29T04:02:08;17.30;99.90
47857;DHT22;33618;49.972;8.242;2022-07-29T04:04:35;17.40;99.90
47857;DHT22;33618;49.972;8.242;2022-07-29T04:07:13;17.30;99.90
47857;DHT22;33618;49.972;8.242;2022-07-29T04:09:40;17.30;99.90
47857;DHT22;33618;49.972;8.242;2022-07-29T04:12:18;17.30;99.90
47857;DHT22;33618;49.972;8.242;2022-07-29T04:21:30;17.30;99.90
47857;DHT22;33618;49.972;8.242;2022-07-29T04:23:58;17.30;99.90
47857;DHT22;33618;49.972;8.242;2022-07-29T04:26:25;17.30;99.90
47857;DHT22;33618;49.972;8.242;2022-07-29T04:28:52;17.20;99.90
47857;DHT22;33618;49.972;8.242;2022-07-29T04:31:19;17.20;99.90
47857;DHT22;33618;49.972;8.242;2022-07-29T04:33:51;17.20;99.90
47857;DHT22;33618;49.972;8.242;2022-07-29T04:36:25;17.20;99.90
47857;DHT22;33618;49.972;8.242;2022-07-29T04:38:55;17.20;99.90
47857;DHT22;33618;49.972;8.242;2022-07-29T04:41:36;17.40;99.90
47857;DHT22;33618;49.972;8.242;2022-07-29T04:44:03;17.40;99.90
47857;DHT22;33618;49.972;8.242;2022-07-29T04:46:34;17.50;99.90
47857;DHT22;33618;49.972;8.242;2022-07-29T04:49:05;17.50;99.90
47857;DHT22;33618;49.972;8.242;2022-07-29T04:51:32;17.50;99.90
47857;DHT22;33618;49.972;8.242;2022-07-29T04:53:59;17.40;99.90
47857;DHT22;33618;49.972;8.242;2022-07-29T04:56:26;17.50;99.90
47857;DHT22;33618;49.972;8.242;2022-07-29T04:58:52;17.50;99.90
47857;DHT22;33618;49.972;8.242;2022-07-29T05:01:28;17.50;99.90
47857;DHT22;33618;49.972;8.242;2022-07-29T05:03:55;17.60;99.90
47857;DHT22;33618;49.972;8.242;2022-07-29T05:06:26;17.60;99.90
47857;DHT22;33618;49.972;8.242;2022-07-29T05:08:53;17.70;99.90
47857;DHT22;33618;49.972;8.242;2022-07-29T05:11:23;17.70;99.90
47857;DHT22;33618;49.972;8.242;2022-07-29T05:13:55;17.70;99.90
47857;DHT22;33618;49.972;8.242;2022-07-29T05:23:08;18.00;99.90
47857;DHT22;33618;49.972;8.242;2022-07-29T05:25:39;18.00;99.90
47857;DHT22;33618;49.972;8.242;2022-07-29T05:28:10;18.00;99.90
47857;DHT22;33618;49.972;8.242;2022-07-29T05:30:37;18.00;99.90
47857;DHT22;33618;49.972;8.242;2022-07-29T05:33:10;18.00;99.90
47857;DHT22;33618;49.972;8.242;2022-07-29T05:35:57;18.10;99.90
47857;DHT22;33618;49.972;8.242;2022-07-29T05:38:34;18.20;99.90
47857;DHT22;33618;49.972;8.242;2022-07-29T05:41:00;18.20;99.90
47857;DHT22;33618;49.972;8.242;2022-07-29T05:43:32;18.20;99.90
47857;DHT22;33618;49.972;8.242;2022-07-29T05:45:59;18.30;99.90
47857;DHT22;33618;49.972;8.242;2022-07-29T05:48:26;18.30;99.90
47857;DHT22;33618;49.972;8.242;2022-07-29T05:50:53;18.40;99.90
47857;DHT22;33618;49.972;8.242;2022-07-29T05:53:21;18.50;99.90
47857;DHT22;33618;49.972;8.242;2022-07-29T05:55:48;18.50;99.90
47857;DHT22;33618;49.972;8.242;2022-07-29T05:58:15;18.60;99.90
47857;DHT22;33618;49.972;8.242;2022-07-29T06:00:42;18.70;99.90
47857;DHT22;33618;49.972;8.242;2022-07-29T06:03:09;18.70;99.90
47857;DHT22;33618;49.972;8.242;2022-07-29T06:05:38;18.70;99.90
47857;DHT22;33618;49.972;8.242;2022-07-29T06:08:07;18.80;99.90
47857;DHT22;33618;49.972;8.242;2022-07-29T06:10:34;18.80;99.90
47857;DHT22;33618;49.972;8.242;2022-07-29T06:13:01;18.90;99.90
47857;DHT22;33618;49.972;8.242;2022-07-29T06:22:22;19.00;99.90
47857;DHT22;33618;49.972;8.242;2022-07-29T06:24:50;19.00;99.90
47857;DHT22;33618;49.972;8.242;2022-07-29T06:27:16;19.10;99.90
47857;DHT22;33618;49.972;8.242;2022-07-29T06:29:43;19.20;99.90
47857;DHT22;33618;49.972;8.242;2022-07-29T06:32:12;19.30;99.90
47857;DHT22;33618;49.972;8.242;2022-07-29T06:34:38;19.40;98.90
47857;DHT22;33618;49.972;8.242;2022-07-29T06:37:14;19.50;98.90
47857;DHT22;33618;49.972;8.242;2022-07-29T06:39:41;19.60;98.70
47857;DHT22;33618;49.972;8.242;2022-07-29T06:42:08;19.60;97.90
47857;DHT22;33618;49.972;8.242;2022-07-29T06:44:41;19.70;97.40
47857;DHT22;33618;49.972;8.242;2022-07-29T06:47:08;19.80;96.70
47857;DHT22;33618;49.972;8.242;2022-07-29T06:49:35;19.90;95.70
47857;DHT22;33618;49.972;8.242;2022-07-29T06:52:02;20.00;95.20
47857;DHT22;33618;49.972;8.242;2022-07-29T06:54:28;20.00;95.60
47857;DHT22;33618;49.972;8.242;2022-07-29T06:56:55;20.00;95.90
47857;DHT22;33618;49.972;8.242;2022-07-29T06:59:22;20.00;96.00
47857;DHT22;33618;49.972;8.242;2022-07-29T07:02:00;20.00;95.70
47857;DHT22;33618;49.972;8.242;2022-07-29T07:04:27;20.10;95.80
47857;DHT22;33618;49.972;8.242;2022-07-29T07:06:54;20.10;95.80
47857;DHT22;33618;49.972;8.242;2022-07-29T07:09:22;20.20;95.40
47857;DHT22;33618;49.972;8.242;2022-07-29T07:11:48;20.30;94.40
47857;DHT22;33618;49.972;8.242;2022-07-29T07:14:27;20.30;94.50
47857;DHT22;33618;49.972;8.242;2022-07-29T07:19:58;20.50;93.40
47857;DHT22;33618;49.972;8.242;2022-07-29T07:22:25;20.60;93.80
47857;DHT22;33618;49.972;8.242;2022-07-29T07:24:52;20.60;93.60
47857;DHT22;33618;49.972;8.242;2022-07-29T07:27:20;20.70;93.70
47857;DHT22;33618;49.972;8.242;2022-07-29T07:29:53;20.80;92.70
47857;DHT22;33618;49.972;8.242;2022-07-29T07:32:20;20.90;91.40
47857;DHT22;33618;49.972;8.242;2022-07-29T07:34:47;20.90;92.40
47857;DHT22;33618;49.972;8.242;2022-07-29T07:37:23;21.00;92.50
47857;DHT22;33618;49.972;8.242;2022-07-29T07:39:51;21.10;92.20
47857;DHT22;33618;49.972;8.242;2022-07-29T07:42:18;21.20;92.00
47857;DHT22;33618;49.972;8.242;2022-07-29T07:44:50;21.20;91.40
47857;DHT22;33618;49.972;8.242;2022-07-29T07:47:37;21.30;91.70
47857;DHT22;33618;49.972;8.242;2022-07-29T08:36:30;22.70;82.70
47857;DHT22;33618;49.972;8.242;2022-07-29T08:38:57;22.90;81.70
47857;DHT22;33618;49.972;8.242;2022-07-29T08:41:24;23.00;82.90
47857;DHT22;33618;49.972;8.242;2022-07-29T08:43:52;23.10;81.40
47857;DHT22;33618;49.972;8.242;2022-07-29T08:46:19;23.10;80.40
47857;DHT22;33618;49.972;8.242;2022-07-29T08:48:47;23.10;80.70
47857;DHT22;33618;49.972;8.242;2022-07-29T08:51:15;23.20;82.70
47857;DHT22;33618;49.972;8.242;2022-07-29T08:53:43;23.30;82.00
47857;DHT22;33618;49.972;8.242;2022-07-29T08:56:14;23.40;81.20
47857;DHT22;33618;49.972;8.242;2022-07-29T08:58:43;23.50;80.50
47857;DHT22;33618;49.972;8.242;2022-07-29T09:01:22;23.50;80.70
47857;DHT22;33618;49.972;8.242;2022-07-29T09:04:03;23.60;81.30
47857;DHT22;33618;49.972;8.242;2022-07-29T09:06:31;23.70;79.70
47857;DHT22;33618;49.972;8.242;2022-07-29T09:09:07;24.00;79.80
47857;DHT22;33618;49.972;8.242;2022-07-29T09:11:34;24.20;80.90
47857;DHT22;33618;49.972;8.242;2022-07-29T09:14:01;24.50;79.50
47857;DHT22;33618;49.972;8.242;2022-07-29T09:19:37;25.00;81.70
47857;DHT22;33618;49.972;8.242;2022-07-29T09:22:11;25.40;79.90
47857;DHT22;33618;49.972;8.242;2022-07-29T09:27:10;26.40;75.60
47857;DHT22;33618;49.972;8.242;2022-07-29T09:29:37;27.10;74.10
47857;DHT22;33618;49.972;8.242;2022-07-29T09:32:06;27.90;74.00
47857;DHT22;33618;49.972;8.242;2022-07-29T09:34:34;28.90;73.50
47857;DHT22;33618;49.972;8.242;2022-07-29T09:37:02;29.70;70.30
47857;DHT22;33618;49.972;8.242;2022-07-29T09:39:37;30.10;67.40
47857;DHT22;33618;49.972;8.242;2022-07-29T09:42:05;30.90;66.70
47857;DHT22;33618;49.972;8.242;2022-07-29T09:44:47;31.60;65.90
47857;DHT22;33618;49.972;8.242;2022-07-29T09:47:22;31.90;65.00
47857;DHT22;33618;49.972;8.242;2022-07-29T09:49:58;32.20;64.60
47857;DHT22;33618;49.972;8.242;2022-07-29T09:52:26;31.80;62.70
47857;DHT22;33618;49.972;8.242;2022-07-29T09:55:03;31.60;62.10
47857;DHT22;33618;49.972;8.242;2022-07-29T09:57:30;31.80;63.00
47857;DHT22;33618;49.972;8.242;2022-07-29T10:00:00;31.90;62.20
47857;DHT22;33618;49.972;8.242;2022-07-29T10:02:33;32.00;63.20
47857;DHT22;33618;49.972;8.242;2022-07-29T10:05:23;32.00;62.80
47857;DHT22;33618;49.972;8.242;2022-07-29T10:15:08;33.70;60.60
47857;DHT22;33618;49.972;8.242;2022-07-29T10:21:16;34.30;58.80
47857;DHT22;33618;49.972;8.242;2022-07-29T10:30:51;33.30;58.20
47857;DHT22;33618;49.972;8.242;2022-07-29T10:42:18;32.00;59.10
47857;DHT22;33618;49.972;8.242;2022-07-29T10:44:51;31.80;59.10
47857;DHT22;33618;49.972;8.242;2022-07-29T10:47:19;32.10;57.90
47857;DHT22;33618;49.972;8.242;2022-07-29T10:49:56;32.80;58.80
47857;DHT22;33618;49.972;8.242;2022-07-29T10:58:18;34.30;56.60
47857;DHT22;33618;49.972;8.242;2022-07-29T11:00:51;34.40;55.20
47857;DHT22;33618;49.972;8.242;2022-07-29T11:06:16;35.10;55.90
47857;DHT22;33618;49.972;8.242;2022-07-29T11:11:41;34.50;56.80
47857;DHT22;33618;49.972;8.242;2022-07-29T11:15:09;34.80;55.00
47857;DHT22;33618;49.972;8.242;2022-07-29T11:17:15;34.70;55.60
47857;DHT22;33618;49.972;8.242;2022-07-29T11:19:42;34.90;56.00
47857;DHT22;33618;49.972;8.242;2022-07-29T11:22:33;35.20;54.40
47857;DHT22;33618;49.972;8.242;2022-07-29T11:25:16;35.30;55.20
47857;DHT22;33618;49.972;8.242;2022-07-29T11:27:46;35.80;56.00
47857;DHT22;33618;49.972;8.242;2022-07-29T11:30:13;36.00;54.80
47857;DHT22;33618;49.972;8.242;2022-07-29T11:32:41;36.20;55.20
47857;DHT22;33618;49.972;8.242;2022-07-29T11:35:23;35.90;53.60
47857;DHT22;33618;49.972;8.242;2022-07-29T11:45:08;36.90;54.70
47857;DHT22;33618;49.972;8.242;2022-07-29T11:48:01;36.60;54.10
47857;DHT22;33618;49.972;8.242;2022-07-29T11:50:54;36.50;53.60
47857;DHT22;33618;49.972;8.242;2022-07-29T11:53:23;36.00;53.20
47857;DHT22;33618;49.972;8.242;2022-07-29T11:56:00;35.70;53.90
47857;DHT22;33618;49.972;8.242;2022-07-29T11:58:28;35.50;53.90
47857;DHT22;33618;49.972;8.242;2022-07-29T12:00:55;35.10;53.60
47857;DHT22;33618;49.972;8.242;2022-07-29T12:03:31;35.10;54.60
47857;DHT22;33618;49.972;8.242;2022-07-29T12:06:11;35.30;53.60
47857;DHT22;33618;49.972;8.242;2022-07-29T12:08:41;35.70;53.70
47857;DHT22;33618;49.972;8.242;2022-07-29T12:11:16;36.20;52.70
47857;DHT22;33618;49.972;8.242;2022-07-29T12:13:46;36.00;54.30
47857;DHT22;33618;49.972;8.242;2022-07-29T12:16:14;36.70;52.70
47857;DHT22;33618;49.972;8.242;2022-07-29T12:18:55;36.80;53.10
47857;DHT22;33618;49.972;8.242;2022-07-29T12:21:22;36.90;52.60
47857;DHT22;33618;49.972;8.242;2022-07-29T12:23:54;37.40;52.30
47857;DHT22;33618;49.972;8.242;2022-07-29T12:26:27;37.70;52.80
47857;DHT22;33618;49.972;8.242;2022-07-29T12:28:54;37.70;52.00
47857;DHT22;33618;49.972;8.242;2022-07-29T12:31:22;37.50;51.20
47857;DHT22;33618;49.972;8.242;2022-07-29T12:34:09;36.70;50.60
47857;DHT22;33618;49.972;8.242;2022-07-29T12:43:22;36.60;51.50
47857;DHT22;33618;49.972;8.242;2022-07-29T12:45:50;36.90;50.90
47857;DHT22;33618;49.972;8.242;2022-07-29T12:48:17;37.20;51.90
47857;DHT22;33618;49.972;8.242;2022-07-29T12:50:57;38.10;51.10
47857;DHT22;33618;49.972;8.242;2022-07-29T12:53:25;38.10;51.70
47857;DHT22;33618;49.972;8.242;2022-07-29T12:55:53;38.50;50.20
47857;DHT22;33618;49.972;8.242;2022-07-29T12:58:34;38.20;49.90
47857;DHT22;33618;49.972;8.242;2022-07-29T13:01:05;37.40;50.00
47857;DHT22;33618;49.972;8.242;2022-07-29T13:09:03;35.90;50.60
47857;DHT22;33618;49.972;8.242;2022-07-29T13:14:11;35.40;51.50
47857;DHT22;33618;49.972;8.242;2022-07-29T13:19:32;35.20;52.30
47857;DHT22;33618;49.972;8.242;2022-07-29T13:21:59;36.20;52.20
47857;DHT22;33618;49.972;8.242;2022-07-29T13:24:26;37.30;51.50
47857;DHT22;33618;49.972;8.242;2022-07-29T13:26:55;37.60;51.50
47857;DHT22;33618;49.972;8.242;2022-07-29T13:29:22;37.90;50.60
47857;DHT22;33618;49.972;8.242;2022-07-29T13:31:54;37.00;50.10
47857;DHT22;33618;49.972;8.242;2022-07-29T13:34:22;36.90;51.40
47857;DHT22;33618;49.972;8.242;2022-07-29T13:36:50;36.20;50.90
47857;DHT22;33618;49.972;8.242;2022-07-29T13:42:22;35.60;51.50
47857;DHT22;33618;49.972;8.242;2022-07-29T13:44:49;36.20;52.10
47857;DHT22;33618;49.972;8.242;2022-07-29T13:47:18;37.10;52.40
47857;DHT22;33618;49.972;8.242;2022-07-29T13:49:45;37.40;52.70
47857;DHT22;33618;49.972;8.242;2022-07-29T13:52:12;37.10;52.30
47857;DHT22;33618;49.972;8.242;2022-07-29T13:54:39;36.80;52.00
47857;DHT22;33618;49.972;8.242;2022-07-29T13:57:08;36.50;52.20
47857;DHT22;33618;49.972;8.242;2022-07-29T13:59:37;36.50;52.60
47857;DHT22;33618;49.972;8.242;2022-07-29T14:02:04;36.10;52.40
47857;DHT22;33618;49.972;8.242;2022-07-29T14:04:32;35.80;52.60
47857;DHT22;33618;49.972;8.242;2022-07-29T14:07:00;35.50;52.90
47857;DHT22;33618;49.972;8.242;2022-07-29T14:09:29;34.60;52.70
47857;DHT22;33618;49.972;8.242;2022-07-29T14:12:07;33.90;53.70
47857;DHT22;33618;49.972;8.242;2022-07-29T14:14:34;32.90;54.20
47857;DHT22;33618;49.972;8.242;2022-07-29T14:17:04;32.30;55.20
47857;DHT22;33618;49.972;8.242;2022-07-29T14:19:33;31.80;55.50
47857;DHT22;33618;49.972;8.242;2022-07-29T14:22:03;31.70;56.20
47857;DHT22;33618;49.972;8.242;2022-07-29T14:24:30;31.70;55.90
47857;DHT22;33618;49.972;8.242;2022-07-29T14:26:57;31.60;55.50
47857;DHT22;33618;49.972;8.242;2022-07-29T14:29:24;31.50;56.00
47857;DHT22;33618;49.972;8.242;2022-07-29T14:32:04;31.40;55.90
47857;DHT22;33618;49.972;8.242;2022-07-29T14:34:32;31.30;56.20
47857;DHT22;33618;49.972;8.242;2022-07-29T14:37:00;31.30;56.00
47857;DHT22;33618;49.972;8.242;2022-07-29T14:42:31;31.40;56.20
47857;DHT22;33618;49.972;8.242;2022-07-29T14:44:58;31.40;55.60
47857;DHT22;33618;49.972;8.242;2022-07-29T14:47:25;31.30;56.60
47857;DHT22;33618;49.972;8.242;2022-07-29T14:49:52;31.30;56.00
47857;DHT22;33618;49.972;8.242;2022-07-29T14:52:19;31.10;56.00
47857;DHT22;33618;49.972;8.242;2022-07-29T14:54:45;31.10;56.90
47857;DHT22;33618;49.972;8.242;2022-07-29T14:57:12;30.90;56.80
47857;DHT22;33618;49.972;8.242;2022-07-29T14:59:39;30.90;56.60
47857;DHT22;33618;49.972;8.242;2022-07-29T15:02:06;30.90;57.30
47857;DHT22;33618;49.972;8.242;2022-07-29T15:04:33;30.90;57.20
47857;DHT22;33618;49.972;8.242;2022-07-29T15:07:00;30.60;57.90
47857;DHT22;33618;49.972;8.242;2022-07-29T15:09:27;30.40;57.80
47857;DHT22;33618;49.972;8.242;2022-07-29T15:11:55;29.70;60.90
47857;DHT22;33618;49.972;8.242;2022-07-29T15:14:22;28.00;63.70
47857;DHT22;33618;49.972;8.242;2022-07-29T15:16:49;27.20;64.50
47857;DHT22;33618;49.972;8.242;2022-07-29T15:19:18;26.70;64.00
47857;DHT22;33618;49.972;8.242;2022-07-29T15:21:45;26.70;63.40
47857;DHT22;33618;49.972;8.242;2022-07-29T15:24:18;26.70;63.70
47857;DHT22;33618;49.972;8.242;2022-07-29T15:26:47;26.80;62.30
47857;DHT22;33618;49.972;8.242;2022-07-29T15:29:14;26.90;61.00
47857;DHT22;33618;49.972;8.242;2022-07-29T15:31:41;26.90;60.90
47857;DHT22;33618;49.972;8.242;2022-07-29T15:34:09;27.00;60.50
47857;DHT22;33618;49.972;8.242;2022-07-29T15:36:35;27.00;60.90
47857;DHT22;33618;49.972;8.242;2022-07-29T15:42:25;27.00;62.60
47857;DHT22;33618;49.972;8.242;2022-07-29T15:44:53;27.20;62.30
47857;DHT22;33618;49.972;8.242;2022-07-29T15:47:19;27.30;62.00
47857;DHT22;33618;49.972;8.242;2022-07-29T15:49:46;27.60;61.00
47857;DHT22;33618;49.972;8.242;2022-07-29T15:52:18;27.80;60.30
47857;DHT22;33618;49.972;8.242;2022-07-29T15:54:52;28.00;59.10
47857;DHT22;33618;49.972;8.242;2022-07-29T15:57:23;28.20;59.10
47857;DHT22;33618;49.972;8.242;2022-07-29T15:59:51;28.90;59.20
47857;DHT22;33618;49.972;8.242;2022-07-29T16:02:18;29.90;58.20
47857;DHT22;33618;49.972;8.242;2022-07-29T16:04:45;30.80;57.20
47857;DHT22;33618;49.972;8.242;2022-07-29T16:07:13;31.80;56.40
47857;DHT22;33618;49.972;8.242;2022-07-29T16:09:40;32.80;55.90
47857;DHT22;33618;49.972;8.242;2022-07-29T16:12:07;33.30;54.90
47857;DHT22;33618;49.972;8.242;2022-07-29T16:14:44;33.80;53.90
47857;DHT22;33618;49.972;8.242;2022-07-29T16:17:11;34.50;53.70
47857;DHT22;33618;49.972;8.242;2022-07-29T16:19:41;35.00;52.30
47857;DHT22;33618;49.972;8.242;2022-07-29T16:22:08;35.10;52.30
47857;DHT22;33618;49.972;8.242;2022-07-29T16:24:35;35.10;51.60
47857;DHT22;33618;49.972;8.242;2022-07-29T16:27:02;35.20;51.20
47857;DHT22;33618;49.972;8.242;2022-07-29T16:29:29;35.50;51.60
47857;DHT22;33618;49.972;8.242;2022-07-29T16:31:56;35.10;52.40
47857;DHT22;33618;49.972;8.242;2022-07-29T16:34:23;33.30;56.00
47857;DHT22;33618;49.972;8.242;2022-07-29T16:36:50;32.10;57.70
47857;DHT22;33618;49.972;8.242;2022-07-29T16:42:58;30.00;60.40
47857;DHT22;33618;49.972;8.242;2022-07-29T16:45:25;28.70;60.90
47857;DHT22;33618;49.972;8.242;2022-07-29T16:47:57;28.30;61.70
47857;DHT22;33618;49.972;8.242;2022-07-29T16:50:27;27.90;61.80
47857;DHT22;33618;49.972;8.242;2022-07-29T16:52:55;27.50;62.90
47857;DHT22;33618;49.972;8.242;2022-07-29T16:55:22;27.20;63.70
47857;DHT22;33618;49.972;8.242;2022-07-29T16:57:49;27.20;64.40
47857;DHT22;33618;49.972;8.242;2022-07-29T17:00:18;26.70;64.70
47857;DHT22;33618;49.972;8.242;2022-07-29T17:02:46;26.30;65.20
47857;DHT22;33618;49.972;8.242;2022-07-29T17:05:13;25.90;65.20
47857;DHT22;33618;49.972;8.242;2022-07-29T17:07:41;25.80;64.30
47857;DHT22;33618;49.972;8.242;2022-07-29T17:10:08;25.40;65.30
47857;DHT22;33618;49.972;8.242;2022-07-29T17:12:36;23.90;89.00
47857;DHT22;33618;49.972;8.242;2022-07-29T17:17:31;20.60;99.90
47857;DHT22;33618;49.972;8.242;2022-07-29T17:20:18;20.00;99.90
47857;DHT22;33618;49.972;8.242;2022-07-29T17:22:45;19.70;99.90
47857;DHT22;33618;49.972;8.242;2022-07-29T17:25:11;19.80;99.90
47857;DHT22;33618;49.972;8.242;2022-07-29T17:27:46;20.50;99.90
47857;DHT22;33618;49.972;8.242;2022-07-29T17:30:13;20.80;99.90
47857;DHT22;33618;49.972;8.242;2022-07-29T17:32:40;21.30;99.90
47857;DHT22;33618;49.972;8.242;2022-07-29T17:35:07;21.60;99.90
47857;DHT22;33618;49.972;8.242;2022-07-29T17:37:54;21.80;99.90
47857;DHT22;33618;49.972;8.242;2022-07-29T17:43:25;22.10;99.90
47857;DHT22;33618;49.972;8.242;2022-07-29T17:45:52;22.30;99.90
47857;DHT22;33618;49.972;8.242;2022-07-29T17:48:24;22.30;99.90
47857;DHT22;33618;49.972;8.242;2022-07-29T17:50:52;22.20;99.90
47857;DHT22;33618;49.972;8.242;2022-07-29T17:53:18;22.10;99.90
47857;DHT22;33618;49.972;8.242;2022-07-29T17:55:45;22.10;99.90
47857;DHT22;33618;49.972;8.242;2022-07-29T17:58:14;22.00;99.90
47857;DHT22;33618;49.972;8.242;2022-07-29T18:00:41;22.00;99.90
47857;DHT22;33618;49.972;8.242;2022-07-29T18:03:08;22.10;99.90
47857;DHT22;33618;49.972;8.242;2022-07-29T18:05:36;22.10;99.90
47857;DHT22;33618;49.972;8.242;2022-07-29T18:08:03;22.00;99.90
47857;DHT22;33618;49.972;8.242;2022-07-29T18:10:29;22.10;99.90
47857;DHT22;33618;49.972;8.242;2022-07-29T18:12:56;22.10;99.90
47857;DHT22;33618;49.972;8.242;2022-07-29T18:15:23;22.20;99.90
47857;DHT22;33618;49.972;8.242;2022-07-29T18:17:50;22.10;99.90
47857;DHT22;33618;49.972;8.242;2022-07-29T18:20:24;22.10;99.90
47857;DHT22;33618;49.972;8.242;2022-07-29T18:22:51;22.10;99.90
47857;DHT22;33618;49.972;8.242;2022-07-29T18:25:18;22.00;99.90
47857;DHT22;33618;49.972;8.242;2022-07-29T18:27:45;22.00;99.90
47857;DHT22;33618;49.972;8.242;2022-07-29T18:30:11;22.10;99.90
47857;DHT22;33618;49.972;8.242;2022-07-29T18:32:40;22.10;99.90
47857;DHT22;33618;49.972;8.242;2022-07-29T18:35:27;22.10;99.90
47857;DHT22;33618;49.972;8.242;2022-07-29T18:37:54;22.10;99.90
47857;DHT22;33618;49.972;8.242;2022-07-29T18:43:32;22.20;99.90
47857;DHT22;33618;49.972;8.242;2022-07-29T18:45:59;22.30;99.90
47857;DHT22;33618;49.972;8.242;2022-07-29T18:48:26;22.30;99.90
47857;DHT22;33618;49.972;8.242;2022-07-29T18:50:53;22.20;99.90
47857;DHT22;33618;49.972;8.242;2022-07-29T18:53:19;22.10;99.90
47857;DHT22;33618;49.972;8.242;2022-07-29T18:55:46;22.00;99.90
47857;DHT22;33618;49.972;8.242;2022-07-29T18:58:13;22.10;99.90
47857;DHT22;33618;49.972;8.242;2022-07-29T19:00:40;22.10;99.90
47857;DHT22;33618;49.972;8.242;2022-07-29T19:03:07;22.10;99.90
47857;DHT22;33618;49.972;8.242;2022-07-29T19:05:35;22.10;99.90
47857;DHT22;33618;49.972;8.242;2022-07-29T19:08:01;22.10;99.90
47857;DHT22;33618;49.972;8.242;2022-07-29T19:10:28;22.20;99.90
47857;DHT22;33618;49.972;8.242;2022-07-29T19:12:55;22.20;99.90
47857;DHT22;33618;49.972;8.242;2022-07-29T19:15:23;22.20;99.90
47857;DHT22;33618;49.972;8.242;2022-07-29T19:17:50;22.20;99.90